sensor_id;sensor_type;location;lat;lon;timestamp;temperature;humidity
63219;DHT22;49320;52.512;13.448;2022-10-16T00:01:36;18.30;84.50
63219;DHT22;49320;52.512;13.448;2022-10-16T00:04:04;18.30;84.60
63219;DHT22;49320;52.512;13.448;2022-10-16T00:06:31;18.30;84.50
63219;DHT22;49320;52.512;13.448;2022-10-16T00:08:59;18.40;84.60
63219;DHT22;49320;52.512;13.448;2022-10-16T00:11:31;18.40;84.60
63219;DHT22;49320;52.512;13.448;2022-10-16T00:14:01;18.50;85.00
63219;DHT22;49320;52.512;13.448;2022-10-16T00:16:30;18.50;84.60
63219;DHT22;49320;52.512;13.448;2022-10-16T00:18:58;18.50;84.60
63219;DHT22;49320;52.512;13.448;2022-10-16T00:21:27;18.50;84.50
63219;DHT22;49320;52.512;13.448;2022-10-16T00:24:01;18.60;84.60
63219;DHT22;49320;52.512;13.448;2022-10-16T00:26:33;18.70;84.80
63219;DHT22;49320;52.512;13.448;2022-10-16T00:29:01;18.80;83.90
63219;DHT22;49320;52.512;13.448;2022-10-16T00:31:28;18.70;84.50
63219;DHT22;49320;52.512;13.448;2022-10-16T00:33:56;18.80;84.50
63219;DHT22;49320;52.512;13.448;2022-10-16T00:36:24;18.80;85.20
63219;DHT22;49320;52.512;13.448;2022-10-16T00:38:54;18.80;84.40
63219;DHT22;49320;52.512;13.448;2022-10-16T00:41:23;18.90;84.40
63219;DHT22;49320;52.512;13.448;2022-10-16T00:43:52;18.90;84.30
63219;DHT22;49320;52.512;13.448;2022-10-16T00:46:40;18.90;84.20
63219;DHT22;49320;52.512;13.448;2022-10-16T00:49:10;18.90;84.40
63219;DHT22;49320;52.512;13.448;2022-10-16T00:51:46;18.90;84.20
63219;DHT22;49320;52.512;13.448;2022-10-16T00:54:28;18.90;84.30
63219;DHT22;49320;52.512;13.448;2022-10-16T00:56:59;18.90;84.50
63219;DHT22;49320;52.512;13.448;2022-10-16T00:59:38;19.00;84.20
63219;DHT22;49320;52.512;13.448;2022-10-16T01:02:09;18.90;84.30
63219;DHT22;49320;52.512;13.448;2022-10-16T01:04:45;19.00;84.20
63219;DHT22;49320;52.512;13.448;2022-10-16T01:07:30;19.00;84.10
63219;DHT22;49320;52.512;13.448;2022-10-16T01:13:11;19.00;84.30
63219;DHT22;49320;52.512;13.448;2022-10-16T01:16:13;19.00;84.00
63219;DHT22;49320;52.512;13.448;2022-10-16T01:18:47;19.00;84.60
63219;DHT22;49320;52.512;13.448;2022-10-16T01:21:29;18.90;84.00
63219;DHT22;49320;52.512;13.448;2022-10-16T01:24:08;18.90;84.20
63219;DHT22;49320;52.512;13.448;2022-10-16T01:29:49;18.90;84.20
63219;DHT22;49320;52.512;13.448;2022-10-16T01:32:27;18.90;84.40
63219;DHT22;49320;52.512;13.448;2022-10-16T01:38:02;18.90;84.10
63219;DHT22;49320;52.512;13.448;2022-10-16T01:40:38;18.90;84.10
63219;DHT22;49320;52.512;13.448;2022-10-16T01:43:08;18.90;84.10
63219;DHT22;49320;52.512;13.448;2022-10-16T01:45:41;18.90;84.10
63219;DHT22;49320;52.512;13.448;2022-10-16T01:48:13;18.90;84.20
63219;DHT22;49320;52.512;13.448;2022-10-16T01:50:49;18.90;84.20
63219;DHT22;49320;52.512;13.448;2022-10-16T01:53:20;18.90;84.20
63219;DHT22;49320;52.512;13.448;2022-10-16T01:55:49;18.90;84.10
63219;DHT22;49320;52.512;13.448;2022-10-16T01:58:22;18.90;84.20
63219;DHT22;49320;52.512;13.448;2022-10-16T02:00:52;18.90;84.30
63219;DHT22;49320;52.512;13.448;2022-10-16T02:03:21;18.90;84.30
63219;DHT22;49320;52.512;13.448;2022-10-16T02:05:56;18.90;84.20
63219;DHT22;49320;52.512;13.448;2022-10-16T02:08:27;18.90;84.70
63219;DHT22;49320;52.512;13.448;2022-10-16T02:10:57;18.90;84.40
63219;DHT22;49320;52.512;13.448;2022-10-16T02:13:36;18.90;84.40
63219;DHT22;49320;52.512;13.448;2022-10-16T02:16:07;18.90;84.80
63219;DHT22;49320;52.512;13.448;2022-10-16T02:18:35;19.00;84.50
63219;DHT22;49320;52.512;13.448;2022-10-16T02:21:21;19.00;84.40
63219;DHT22;49320;52.512;13.448;2022-10-16T02:24:03;19.00;85.00
63219;DHT22;49320;52.512;13.448;2022-10-16T02:26:48;19.00;84.70
63219;DHT22;49320;52.512;13.448;2022-10-16T02:29:23;19.00;84.70
63219;DHT22;49320;52.512;13.448;2022-10-16T02:31:59;19.00;84.50
63219;DHT22;49320;52.512;13.448;2022-10-16T02:34:30;19.00;84.60
63219;DHT22;49320;52.512;13.448;2022-10-16T02:37:01;19.00;84.40
63219;DHT22;49320;52.512;13.448;2022-10-16T02:39:31;19.00;84.50
63219;DHT22;49320;52.512;13.448;2022-10-16T02:41:58;19.10;84.40
63219;DHT22;49320;52.512;13.448;2022-10-16T02:44:24;19.00;84.30
63219;DHT22;49320;52.512;13.448;2022-10-16T02:46:51;19.00;84.30
63219;DHT22;49320;52.512;13.448;2022-10-16T02:49:18;19.00;84.30
63219;DHT22;49320;52.512;13.448;2022-10-16T02:51:45;18.90;84.20
63219;DHT22;49320;52.512;13.448;2022-10-16T02:54:11;19.10;84.40
63219;DHT22;49320;52.512;13.448;2022-10-16T02:56:39;19.00;84.30
63219;DHT22;49320;52.512;13.448;2022-10-16T02:59:06;19.10;84.40
63219;DHT22;49320;52.512;13.448;2022-10-16T03:01:32;19.10;84.30
63219;DHT22;49320;52.512;13.448;2022-10-16T03:03:59;19.10;84.30
63219;DHT22;49320;52.512;13.448;2022-10-16T03:06:26;19.10;84.30
63219;DHT22;49320;52.512;13.448;2022-10-16T03:08:53;19.10;84.20
63219;DHT22;49320;52.512;13.448;2022-10-16T03:11:20;19.10;84.10
63219;DHT22;49320;52.512;13.448;2022-10-16T03:13:47;19.10;84.00
63219;DHT22;49320;52.512;13.448;2022-10-16T03:16:13;19.10;84.10
63219;DHT22;49320;52.512;13.448;2022-10-16T03:18:40;19.10;84.10
63219;DHT22;49320;52.512;13.448;2022-10-16T03:21:07;19.10;84.10
63219;DHT22;49320;52.512;13.448;2022-10-16T03:23:34;19.10;84.20
63219;DHT22;49320;52.512;13.448;2022-10-16T03:26:00;19.10;84.20
63219;DHT22;49320;52.512;13.448;2022-10-16T03:28:27;19.50;84.50
63219;DHT22;49320;52.512;13.448;2022-10-16T03:30:54;19.10;84.20
63219;DHT22;49320;52.512;13.448;2022-10-16T03:33:21;19.00;84.20
63219;DHT22;49320;52.512;13.448;2022-10-16T03:35:52;19.10;84.30
63219;DHT22;49320;52.512;13.448;2022-10-16T03:38:20;19.00;84.40
63219;DHT22;49320;52.512;13.448;2022-10-16T03:40:48;19.00;84.20
63219;DHT22;49320;52.512;13.448;2022-10-16T03:43:14;19.00;84.20
63219;DHT22;49320;52.512;13.448;2022-10-16T03:45:41;19.00;84.30
63219;DHT22;49320;52.512;13.448;2022-10-16T03:48:09;18.90;84.30
63219;DHT22;49320;52.512;13.448;2022-10-16T03:50:35;18.90;84.30
63219;DHT22;49320;52.512;13.448;2022-10-16T03:53:03;18.80;84.30
63219;DHT22;49320;52.512;13.448;2022-10-16T03:55:30;18.90;84.50
63219;DHT22;49320;52.512;13.448;2022-10-16T03:57:57;18.80;84.40
63219;DHT22;49320;52.512;13.448;2022-10-16T04:00:23;18.90;84.60
63219;DHT22;49320;52.512;13.448;2022-10-16T04:02:50;18.80;84.60
63219;DHT22;49320;52.512;13.448;2022-10-16T04:05:17;18.80;84.70
63219;DHT22;49320;52.512;13.448;2022-10-16T04:07:44;18.80;84.80
63219;DHT22;49320;52.512;13.448;2022-10-16T04:10:10;18.70;84.20
63219;DHT22;49320;52.512;13.448;2022-10-16T04:12:37;18.70;84.90
63219;DHT22;49320;52.512;13.448;2022-10-16T04:15:04;18.70;85.00
63219;DHT22;49320;52.512;13.448;2022-10-16T04:17:31;18.70;85.10
63219;DHT22;49320;52.512;13.448;2022-10-16T04:19:58;18.70;85.10
63219;DHT22;49320;52.512;13.448;2022-10-16T04:22:25;18.60;85.10
63219;DHT22;49320;52.512;13.448;2022-10-16T04:24:52;18.70;85.30
63219;DHT22;49320;52.512;13.448;2022-10-16T04:27:19;18.60;85.30
63219;DHT22;49320;52.512;13.448;2022-10-16T04:29:46;18.60;85.30
63219;DHT22;49320;52.512;13.448;2022-10-16T04:32:13;18.60;85.30
63219;DHT22;49320;52.512;13.448;2022-10-16T04:34:39;18.60;85.30
63219;DHT22;49320;52.512;13.448;2022-10-16T04:37:06;18.60;85.40
63219;DHT22;49320;52.512;13.448;2022-10-16T04:39:33;18.60;85.40
63219;DHT22;49320;52.512;13.448;2022-10-16T04:42:00;18.60;85.40
63219;DHT22;49320;52.512;13.448;2022-10-16T04:44:27;18.60;85.50
63219;DHT22;49320;52.512;13.448;2022-10-16T04:46:53;18.60;85.50
63219;DHT22;49320;52.512;13.448;2022-10-16T04:49:20;18.50;85.50
63219;DHT22;49320;52.512;13.448;2022-10-16T04:51:47;18.50;85.50
63219;DHT22;49320;52.512;13.448;2022-10-16T04:54:14;18.50;85.50
63219;DHT22;49320;52.512;13.448;2022-10-16T04:56:40;18.50;85.60
63219;DHT22;49320;52.512;13.448;2022-10-16T04:59:14;18.50;85.70
63219;DHT22;49320;52.512;13.448;2022-10-16T05:01:41;18.50;85.90
63219;DHT22;49320;52.512;13.448;2022-10-16T05:04:08;18.40;85.70
63219;DHT22;49320;52.512;13.448;2022-10-16T05:06:35;18.40;85.80
63219;DHT22;49320;52.512;13.448;2022-10-16T05:09:03;18.40;85.90
63219;DHT22;49320;52.512;13.448;2022-10-16T05:11:30;18.40;85.90
63219;DHT22;49320;52.512;13.448;2022-10-16T05:13:57;18.40;85.90
63219;DHT22;49320;52.512;13.448;2022-10-16T05:16:23;18.30;85.90
63219;DHT22;49320;52.512;13.448;2022-10-16T05:18:53;18.30;86.00
63219;DHT22;49320;52.512;13.448;2022-10-16T05:21:29;18.30;86.30
63219;DHT22;49320;52.512;13.448;2022-10-16T05:23:56;18.30;86.10
63219;DHT22;49320;52.512;13.448;2022-10-16T05:26:23;18.20;86.20
63219;DHT22;49320;52.512;13.448;2022-10-16T05:28:50;18.10;86.20
63219;DHT22;49320;52.512;13.448;2022-10-16T05:31:17;18.10;86.20
63219;DHT22;49320;52.512;13.448;2022-10-16T05:33:43;18.20;86.30
63219;DHT22;49320;52.512;13.448;2022-10-16T05:36:10;18.10;86.40
63219;DHT22;49320;52.512;13.448;2022-10-16T05:38:37;18.20;86.50
63219;DHT22;49320;52.512;13.448;2022-10-16T05:41:05;17.80;86.30
63219;DHT22;49320;52.512;13.448;2022-10-16T05:43:32;18.10;86.60
63219;DHT22;49320;52.512;13.448;2022-10-16T05:46:03;18.10;86.70
63219;DHT22;49320;52.512;13.448;2022-10-16T05:48:32;18.10;86.90
63219;DHT22;49320;52.512;13.448;2022-10-16T05:51:01;18.10;86.90
63219;DHT22;49320;52.512;13.448;2022-10-16T05:53:36;18.10;87.00
63219;DHT22;49320;52.512;13.448;2022-10-16T05:56:05;18.10;87.10
63219;DHT22;49320;52.512;13.448;2022-10-16T05:58:35;18.00;87.10
63219;DHT22;49320;52.512;13.448;2022-10-16T06:01:09;18.10;87.20
63219;DHT22;49320;52.512;13.448;2022-10-16T06:03:39;18.10;87.40
63219;DHT22;49320;52.512;13.448;2022-10-16T06:06:11;18.10;87.10
63219;DHT22;49320;52.512;13.448;2022-10-16T06:08:44;18.10;87.50
63219;DHT22;49320;52.512;13.448;2022-10-16T06:11:16;18.10;87.20
63219;DHT22;49320;52.512;13.448;2022-10-16T06:13:45;18.10;87.30
63219;DHT22;49320;52.512;13.448;2022-10-16T06:16:16;18.10;87.20
63219;DHT22;49320;52.512;13.448;2022-10-16T06:18:42;18.10;87.20
63219;DHT22;49320;52.512;13.448;2022-10-16T06:21:11;18.10;87.30
63219;DHT22;49320;52.512;13.448;2022-10-16T06:23:42;18.10;87.50
63219;DHT22;49320;52.512;13.448;2022-10-16T06:26:18;18.10;87.50
63219;DHT22;49320;52.512;13.448;2022-10-16T06:28:47;18.20;87.60
63219;DHT22;49320;52.512;13.448;2022-10-16T06:31:15;18.20;87.50
63219;DHT22;49320;52.512;13.448;2022-10-16T06:33:43;18.30;87.50
63219;DHT22;49320;52.512;13.448;2022-10-16T06:36:14;18.30;87.40
63219;DHT22;49320;52.512;13.448;2022-10-16T06:38:43;18.30;87.50
63219;DHT22;49320;52.512;13.448;2022-10-16T06:41:16;18.30;87.40
63219;DHT22;49320;52.512;13.448;2022-10-16T06:43:45;18.40;87.50
63219;DHT22;49320;52.512;13.448;2022-10-16T06:46:14;18.40;87.30
63219;DHT22;49320;52.512;13.448;2022-10-16T06:48:43;18.50;87.30
63219;DHT22;49320;52.512;13.448;2022-10-16T06:51:13;18.50;87.10
63219;DHT22;49320;52.512;13.448;2022-10-16T06:53:43;18.50;87.20
63219;DHT22;49320;52.512;13.448;2022-10-16T06:56:29;18.60;87.10
63219;DHT22;49320;52.512;13.448;2022-10-16T06:58:58;18.50;86.90
63219;DHT22;49320;52.512;13.448;2022-10-16T07:01:27;18.60;86.90
63219;DHT22;49320;52.512;13.448;2022-10-16T07:03:54;18.70;87.70
63219;DHT22;49320;52.512;13.448;2022-10-16T07:06:22;18.70;86.90
63219;DHT22;49320;52.512;13.448;2022-10-16T07:08:51;18.70;86.90
63219;DHT22;49320;52.512;13.448;2022-10-16T07:11:21;18.80;86.90
63219;DHT22;49320;52.512;13.448;2022-10-16T07:13:50;18.80;86.90
63219;DHT22;49320;52.512;13.448;2022-10-16T07:16:27;18.90;86.90
63219;DHT22;49320;52.512;13.448;2022-10-16T07:18:57;19.00;87.00
63219;DHT22;49320;52.512;13.448;2022-10-16T07:21:28;19.20;86.90
63219;DHT22;49320;52.512;13.448;2022-10-16T07:23:59;19.20;86.70
63219;DHT22;49320;52.512;13.448;2022-10-16T07:26:29;19.30;86.60
63219;DHT22;49320;52.512;13.448;2022-10-16T07:28:57;19.40;86.40
63219;DHT22;49320;52.512;13.448;2022-10-16T07:31:24;19.50;86.00
63219;DHT22;49320;52.512;13.448;2022-10-16T07:33:51;19.60;85.80
63219;DHT22;49320;52.512;13.448;2022-10-16T07:36:19;19.70;85.70
63219;DHT22;49320;52.512;13.448;2022-10-16T07:38:47;19.80;85.50
63219;DHT22;49320;52.512;13.448;2022-10-16T07:41:16;19.90;85.20
63219;DHT22;49320;52.512;13.448;2022-10-16T07:43:49;19.90;84.90
63219;DHT22;49320;52.512;13.448;2022-10-16T07:46:19;20.00;84.60
63219;DHT22;49320;52.512;13.448;2022-10-16T07:48:46;20.10;84.60
63219;DHT22;49320;52.512;13.448;2022-10-16T07:51:17;20.20;84.50
63219;DHT22;49320;52.512;13.448;2022-10-16T07:53:46;20.30;84.20
63219;DHT22;49320;52.512;13.448;2022-10-16T07:56:13;20.20;84.00
63219;DHT22;49320;52.512;13.448;2022-10-16T07:58:41;20.30;83.70
63219;DHT22;49320;52.512;13.448;2022-10-16T08:01:13;20.40;83.60
63219;DHT22;49320;52.512;13.448;2022-10-16T08:03:42;20.40;83.30
63219;DHT22;49320;52.512;13.448;2022-10-16T08:06:10;20.40;83.20
63219;DHT22;49320;52.512;13.448;2022-10-16T08:08:37;20.50;83.20
63219;DHT22;49320;52.512;13.448;2022-10-16T08:11:04;20.50;83.20
63219;DHT22;49320;52.512;13.448;2022-10-16T08:13:31;20.50;83.20
63219;DHT22;49320;52.512;13.448;2022-10-16T08:15:58;20.60;83.20
63219;DHT22;49320;52.512;13.448;2022-10-16T08:18:25;20.60;83.20
63219;DHT22;49320;52.512;13.448;2022-10-16T08:20:59;20.70;83.20
63219;DHT22;49320;52.512;13.448;2022-10-16T08:23:29;20.70;82.70
63219;DHT22;49320;52.512;13.448;2022-10-16T08:26:02;20.80;82.70
63219;DHT22;49320;52.512;13.448;2022-10-16T08:28:34;20.80;82.30
63219;DHT22;49320;52.512;13.448;2022-10-16T08:31:07;20.90;82.30
63219;DHT22;49320;52.512;13.448;2022-10-16T08:33:35;20.90;81.80
63219;DHT22;49320;52.512;13.448;2022-10-16T08:36:05;21.00;81.80
63219;DHT22;49320;52.512;13.448;2022-10-16T08:38:32;21.00;81.60
63219;DHT22;49320;52.512;13.448;2022-10-16T08:44:42;21.10;81.10
63219;DHT22;49320;52.512;13.448;2022-10-16T08:47:25;21.20;81.80
63219;DHT22;49320;52.512;13.448;2022-10-16T08:50:09;21.20;81.00
63219;DHT22;49320;52.512;13.448;2022-10-16T08:52:41;21.20;80.80
63219;DHT22;49320;52.512;13.448;2022-10-16T08:55:28;21.20;80.90
63219;DHT22;49320;52.512;13.448;2022-10-16T08:58:00;21.20;80.60
63219;DHT22;49320;52.512;13.448;2022-10-16T09:00:27;21.30;80.90
63219;DHT22;49320;52.512;13.448;2022-10-16T09:03:32;21.30;80.70
63219;DHT22;49320;52.512;13.448;2022-10-16T09:12:03;21.40;79.20
63219;DHT22;49320;52.512;13.448;2022-10-16T09:15:03;21.40;79.40
63219;DHT22;49320;52.512;13.448;2022-10-16T09:18:22;21.40;79.50
63219;DHT22;49320;52.512;13.448;2022-10-16T09:23:43;21.40;79.50
63219;DHT22;49320;52.512;13.448;2022-10-16T09:26:13;21.40;79.10
63219;DHT22;49320;52.512;13.448;2022-10-16T09:28:41;21.40;79.00
63219;DHT22;49320;52.512;13.448;2022-10-16T09:31:16;21.50;79.00
63219;DHT22;49320;52.512;13.448;2022-10-16T09:33:53;21.60;78.60
63219;DHT22;49320;52.512;13.448;2022-10-16T09:36:25;21.50;78.50
63219;DHT22;49320;52.512;13.448;2022-10-16T09:39:05;21.50;78.30
63219;DHT22;49320;52.512;13.448;2022-10-16T09:41:36;21.60;77.80
63219;DHT22;49320;52.512;13.448;2022-10-16T09:44:18;21.60;77.90
63219;DHT22;49320;52.512;13.448;2022-10-16T09:46:49;21.60;77.50
63219;DHT22;49320;52.512;13.448;2022-10-16T09:49:26;21.50;77.90
63219;DHT22;49320;52.512;13.448;2022-10-16T09:52:14;21.60;77.80
63219;DHT22;49320;52.512;13.448;2022-10-16T09:54:57;21.60;77.50
63219;DHT22;49320;52.512;13.448;2022-10-16T09:57:29;21.60;77.30
63219;DHT22;49320;52.512;13.448;2022-10-16T09:59:57;21.60;77.60
63219;DHT22;49320;52.512;13.448;2022-10-16T10:02:33;21.60;77.30
63219;DHT22;49320;52.512;13.448;2022-10-16T10:05:04;21.50;76.80
63219;DHT22;49320;52.512;13.448;2022-10-16T10:07:43;21.60;76.90
63219;DHT22;49320;52.512;13.448;2022-10-16T10:10:21;21.60;77.00
63219;DHT22;49320;52.512;13.448;2022-10-16T10:12:56;21.60;76.80
63219;DHT22;49320;52.512;13.448;2022-10-16T10:15:24;21.60;77.20
63219;DHT22;49320;52.512;13.448;2022-10-16T10:17:55;21.60;77.10
63219;DHT22;49320;52.512;13.448;2022-10-16T10:20:36;21.60;76.90
63219;DHT22;49320;52.512;13.448;2022-10-16T10:23:22;21.70;76.50
63219;DHT22;49320;52.512;13.448;2022-10-16T10:26:15;21.70;76.50
63219;DHT22;49320;52.512;13.448;2022-10-16T10:31:39;21.90;75.90
63219;DHT22;49320;52.512;13.448;2022-10-16T10:34:35;21.90;75.90
63219;DHT22;49320;52.512;13.448;2022-10-16T10:40:51;22.00;75.00
63219;DHT22;49320;52.512;13.448;2022-10-16T10:46:35;22.10;74.90
63219;DHT22;49320;52.512;13.448;2022-10-16T10:55:23;22.30;73.40
63219;DHT22;49320;52.512;13.448;2022-10-16T11:01:40;22.50;72.20
63219;DHT22;49320;52.512;13.448;2022-10-16T11:08:07;22.60;71.30
63219;DHT22;49320;52.512;13.448;2022-10-16T11:13:45;22.70;71.00
63219;DHT22;49320;52.512;13.448;2022-10-16T11:16:26;22.80;70.90
63219;DHT22;49320;52.512;13.448;2022-10-16T11:19:16;22.80;70.70
63219;DHT22;49320;52.512;13.448;2022-10-16T11:22:12;22.90;70.50
63219;DHT22;49320;52.512;13.448;2022-10-16T11:24:51;23.00;69.80
63219;DHT22;49320;52.512;13.448;2022-10-16T11:27:39;23.00;69.60
63219;DHT22;49320;52.512;13.448;2022-10-16T11:30:34;23.10;68.90
63219;DHT22;49320;52.512;13.448;2022-10-16T11:35:56;23.10;69.40
63219;DHT22;49320;52.512;13.448;2022-10-16T11:38:43;23.20;68.30
63219;DHT22;49320;52.512;13.448;2022-10-16T11:44:33;23.20;67.70
63219;DHT22;49320;52.512;13.448;2022-10-16T11:47:23;23.20;67.00
63219;DHT22;49320;52.512;13.448;2022-10-16T11:51:02;23.10;67.60
63219;DHT22;49320;52.512;13.448;2022-10-16T11:53:44;23.10;66.20
63219;DHT22;49320;52.512;13.448;2022-10-16T11:56:19;23.00;67.20
63219;DHT22;49320;52.512;13.448;2022-10-16T11:58:57;22.90;66.30
63219;DHT22;49320;52.512;13.448;2022-10-16T12:04:38;22.80;65.70
63219;DHT22;49320;52.512;13.448;2022-10-16T12:07:40;22.70;64.90
63219;DHT22;49320;52.512;13.448;2022-10-16T12:10:20;22.60;65.10
63219;DHT22;49320;52.512;13.448;2022-10-16T12:12:53;22.60;66.20
63219;DHT22;49320;52.512;13.448;2022-10-16T12:18:21;22.40;66.20
63219;DHT22;49320;52.512;13.448;2022-10-16T12:20:59;22.40;65.30
63219;DHT22;49320;52.512;13.448;2022-10-16T12:23:36;22.40;65.30
63219;DHT22;49320;52.512;13.448;2022-10-16T12:26:05;22.30;65.70
63219;DHT22;49320;52.512;13.448;2022-10-16T12:28:33;22.30;65.60
63219;DHT22;49320;52.512;13.448;2022-10-16T12:31:05;22.20;65.60
63219;DHT22;49320;52.512;13.448;2022-10-16T12:33:39;22.30;64.80
63219;DHT22;49320;52.512;13.448;2022-10-16T12:36:34;22.30;64.80
63219;DHT22;49320;52.512;13.448;2022-10-16T12:39:01;22.30;64.30
63219;DHT22;49320;52.512;13.448;2022-10-16T12:41:31;22.30;64.80
63219;DHT22;49320;52.512;13.448;2022-10-16T12:44:00;22.30;64.50
63219;DHT22;49320;52.512;13.448;2022-10-16T12:51:43;22.40;63.40
63219;DHT22;49320;52.512;13.448;2022-10-16T12:57:09;22.40;63.40
63219;DHT22;49320;52.512;13.448;2022-10-16T12:59:54;22.30;62.60
63219;DHT22;49320;52.512;13.448;2022-10-16T13:11:27;22.40;62.30
63219;DHT22;49320;52.512;13.448;2022-10-16T13:14:32;22.50;63.50
63219;DHT22;49320;52.512;13.448;2022-10-16T13:17:18;22.40;61.70
63219;DHT22;49320;52.512;13.448;2022-10-16T13:20:20;22.50;61.90
63219;DHT22;49320;52.512;13.448;2022-10-16T13:23:23;22.50;62.30
63219;DHT22;49320;52.512;13.448;2022-10-16T13:26:17;22.50;61.70
63219;DHT22;49320;52.512;13.448;2022-10-16T13:28:58;22.50;60.10
63219;DHT22;49320;52.512;13.448;2022-10-16T13:31:28;22.50;61.80
63219;DHT22;49320;52.512;13.448;2022-10-16T13:33:58;22.50;62.00
63219;DHT22;49320;52.512;13.448;2022-10-16T13:36:28;22.60;61.80
63219;DHT22;49320;52.512;13.448;2022-10-16T13:39:27;22.50;61.70
63219;DHT22;49320;52.512;13.448;2022-10-16T13:42:09;22.60;60.80
63219;DHT22;49320;52.512;13.448;2022-10-16T13:44:49;22.60;60.80
63219;DHT22;49320;52.512;13.448;2022-10-16T13:47:19;22.70;61.10
63219;DHT22;49320;52.512;13.448;2022-10-16T13:50:03;22.70;59.90
63219;DHT22;49320;52.512;13.448;2022-10-16T13:52:37;22.70;60.70
63219;DHT22;49320;52.512;13.448;2022-10-16T13:55:16;22.80;61.40
63219;DHT22;49320;52.512;13.448;2022-10-16T13:57:45;22.80;60.10
63219;DHT22;49320;52.512;13.448;2022-10-16T14:00:23;22.80;60.70
63219;DHT22;49320;52.512;13.448;2022-10-16T14:03:01;22.80;60.00
63219;DHT22;49320;52.512;13.448;2022-10-16T14:05:50;22.80;60.30
63219;DHT22;49320;52.512;13.448;2022-10-16T14:08:20;22.70;60.70
63219;DHT22;49320;52.512;13.448;2022-10-16T14:10:53;22.70;60.90
63219;DHT22;49320;52.512;13.448;2022-10-16T14:13:36;22.60;60.70
63219;DHT22;49320;52.512;13.448;2022-10-16T14:16:10;22.70;60.60
63219;DHT22;49320;52.512;13.448;2022-10-16T14:18:46;22.70;60.80
63219;DHT22;49320;52.512;13.448;2022-10-16T14:21:20;22.70;60.90
63219;DHT22;49320;52.512;13.448;2022-10-16T14:23:47;22.70;60.80
63219;DHT22;49320;52.512;13.448;2022-10-16T14:26:17;22.60;60.70
63219;DHT22;49320;52.512;13.448;2022-10-16T14:28:46;22.60;60.70
63219;DHT22;49320;52.512;13.448;2022-10-16T14:31:33;22.60;60.80
63219;DHT22;49320;52.512;13.448;2022-10-16T14:34:00;22.60;60.20
63219;DHT22;49320;52.512;13.448;2022-10-16T14:36:28;22.60;60.90
63219;DHT22;49320;52.512;13.448;2022-10-16T14:41:30;22.60;60.30
63219;DHT22;49320;52.512;13.448;2022-10-16T14:44:02;22.60;60.70
63219;DHT22;49320;52.512;13.448;2022-10-16T14:46:36;22.50;60.10
63219;DHT22;49320;52.512;13.448;2022-10-16T14:51:38;22.50;60.20
63219;DHT22;49320;52.512;13.448;2022-10-16T14:54:14;22.50;60.50
63219;DHT22;49320;52.512;13.448;2022-10-16T14:56:48;22.50;60.40
63219;DHT22;49320;52.512;13.448;2022-10-16T14:59:40;22.50;60.10
63219;DHT22;49320;52.512;13.448;2022-10-16T15:04:57;22.40;59.70
63219;DHT22;49320;52.512;13.448;2022-10-16T15:07:28;22.40;60.40
63219;DHT22;49320;52.512;13.448;2022-10-16T15:09:55;22.40;59.90
63219;DHT22;49320;52.512;13.448;2022-10-16T15:12:23;22.30;60.00
63219;DHT22;49320;52.512;13.448;2022-10-16T15:14:50;22.30;60.10
63219;DHT22;49320;52.512;13.448;2022-10-16T15:17:17;22.30;60.20
63219;DHT22;49320;52.512;13.448;2022-10-16T15:19:47;22.40;60.30
63219;DHT22;49320;52.512;13.448;2022-10-16T15:22:14;22.30;60.30
63219;DHT22;49320;52.512;13.448;2022-10-16T15:24:41;22.30;60.30
63219;DHT22;49320;52.512;13.448;2022-10-16T15:27:08;22.30;60.40
63219;DHT22;49320;52.512;13.448;2022-10-16T15:29:35;22.20;60.30
63219;DHT22;49320;52.512;13.448;2022-10-16T15:32:02;22.20;60.30
63219;DHT22;49320;52.512;13.448;2022-10-16T15:34:29;22.20;60.30
63219;DHT22;49320;52.512;13.448;2022-10-16T15:36:55;22.10;60.20
63219;DHT22;49320;52.512;13.448;2022-10-16T15:39:24;22.10;60.10
63219;DHT22;49320;52.512;13.448;2022-10-16T15:41:51;22.00;60.10
63219;DHT22;49320;52.512;13.448;2022-10-16T15:44:20;22.00;60.10
63219;DHT22;49320;52.512;13.448;2022-10-16T15:46:49;22.00;60.00
63219;DHT22;49320;52.512;13.448;2022-10-16T15:49:16;21.90;60.00
63219;DHT22;49320;52.512;13.448;2022-10-16T15:51:42;21.90;60.00
63219;DHT22;49320;52.512;13.448;2022-10-16T15:54:09;21.90;60.00
63219;DHT22;49320;52.512;13.448;2022-10-16T15:56:36;21.90;60.10
63219;DHT22;49320;52.512;13.448;2022-10-16T15:59:04;21.80;60.00
63219;DHT22;49320;52.512;13.448;2022-10-16T16:01:35;21.70;60.00
63219;DHT22;49320;52.512;13.448;2022-10-16T16:04:02;21.70;59.90
63219;DHT22;49320;52.512;13.448;2022-10-16T16:06:45;21.70;60.00
63219;DHT22;49320;52.512;13.448;2022-10-16T16:09:13;21.60;60.10
63219;DHT22;49320;52.512;13.448;2022-10-16T16:11:40;21.60;60.10
63219;DHT22;49320;52.512;13.448;2022-10-16T16:14:10;21.50;60.10
63219;DHT22;49320;52.512;13.448;2022-10-16T16:16:39;21.50;60.00
63219;DHT22;49320;52.512;13.448;2022-10-16T16:19:06;21.40;60.10
63219;DHT22;49320;52.512;13.448;2022-10-16T16:21:37;21.30;60.10
63219;DHT22;49320;52.512;13.448;2022-10-16T16:24:04;21.30;60.20
63219;DHT22;49320;52.512;13.448;2022-10-16T16:26:35;21.20;60.20
63219;DHT22;49320;52.512;13.448;2022-10-16T16:29:05;21.20;60.30
63219;DHT22;49320;52.512;13.448;2022-10-16T16:31:33;21.10;60.30
63219;DHT22;49320;52.512;13.448;2022-10-16T16:34:01;21.10;60.40
63219;DHT22;49320;52.512;13.448;2022-10-16T16:36:27;20.90;60.40
63219;DHT22;49320;52.512;13.448;2022-10-16T16:38:55;20.90;60.50
63219;DHT22;49320;52.512;13.448;2022-10-16T16:41:26;20.80;60.60
63219;DHT22;49320;52.512;13.448;2022-10-16T16:43:54;20.70;60.70
63219;DHT22;49320;52.512;13.448;2022-10-16T16:46:22;20.70;60.80
63219;DHT22;49320;52.512;13.448;2022-10-16T16:48:49;20.60;60.90
63219;DHT22;49320;52.512;13.448;2022-10-16T16:51:17;20.60;61.00
63219;DHT22;49320;52.512;13.448;2022-10-16T16:53:48;20.50;61.10
63219;DHT22;49320;52.512;13.448;2022-10-16T16:56:17;20.40;61.80
63219;DHT22;49320;52.512;13.448;2022-10-16T16:58:46;20.40;61.20
63219;DHT22;49320;52.512;13.448;2022-10-16T17:01:14;20.30;61.20
63219;DHT22;49320;52.512;13.448;2022-10-16T17:03:47;20.20;61.30
63219;DHT22;49320;52.512;13.448;2022-10-16T17:06:20;20.20;61.40
63219;DHT22;49320;52.512;13.448;2022-10-16T17:08:49;20.10;61.40
63219;DHT22;49320;52.512;13.448;2022-10-16T17:11:19;20.10;61.50
63219;DHT22;49320;52.512;13.448;2022-10-16T17:13:49;20.00;61.50